Time;durP1;ratioP1;P1;durP2;ratioP2;P2;SDS_P1;SDS_P2;PMS_P1;PMS_P2;Temp;Humidity;BMP_temperature;BMP_pressure;BME280_temperature;BME280_humidity;BME280_pressure;Samples;Min_cycle;Max_cycle;Signal;HPM_P1;HPM_P2
2022/07/05 00:00:18;;;;;;;5.57;2.70;;;15.10;99.90;;;;;;4988918;28;20203;-51
2022/07/05 00:02:44;;;;;;;3.10;2.60;;;15.10;99.90;;;;;;4988241;28;20603;-51
2022/07/05 00:05:11;;;;;;;4.07;2.47;;;15.10;99.90;;;;;;4989700;28;20271;-51
2022/07/05 00:07:36;;;;;;;2.80;2.60;;;15.10;99.90;;;;;;4989985;28;20442;-51
2022/07/05 00:10:03;;;;;;;11.03;2.07;;;15.00;99.90;;;;;;4989198;28;20206;-51
2022/07/05 00:12:34;;;;;;;3.13;2.53;;;14.90;99.90;;;;;;4989539;28;20271;-52
2022/07/05 00:15:00;;;;;;;3.10;2.10;;;14.90;99.90;;;;;;4985692;28;21009;-51
2022/07/05 00:17:26;;;;;;;4.47;2.30;;;14.90;99.90;;;;;;4990003;28;20534;-51
2022/07/05 00:19:52;;;;;;;4.83;2.33;;;14.90;99.90;;;;;;4990721;28;20581;-51
2022/07/05 00:22:17;;;;;;;2.73;2.53;;;14.80;99.90;;;;;;4989699;28;20243;-51
2022/07/05 00:24:43;;;;;;;3.87;2.20;;;14.70;99.90;;;;;;4991270;28;20176;-52
2022/07/05 00:27:09;;;;;;;4.47;2.60;;;14.70;99.90;;;;;;4990144;28;20202;-51
2022/07/05 00:29:34;;;;;;;7.87;2.70;;;14.70;99.90;;;;;;4989068;28;20188;-51
2022/07/05 00:32:00;;;;;;;4.67;2.70;;;14.60;99.90;;;;;;4990552;28;20180;-51
2022/07/05 00:34:26;;;;;;;2.80;2.37;;;14.60;99.90;;;;;;4987280;28;20642;-51
2022/07/05 00:36:52;;;;;;;3.03;2.40;;;14.60;99.90;;;;;;4991271;28;20281;-51
2022/07/05 00:39:17;;;;;;;3.93;2.20;;;14.50;99.90;;;;;;4989826;28;20200;-51
2022/07/05 00:41:43;;;;;;;3.03;2.77;;;14.50;99.90;;;;;;4990651;28;20215;-51
2022/07/05 00:44:10;;;;;;;4.67;2.70;;;14.50;99.90;;;;;;4990054;28;20646;-51
2022/07/05 00:46:38;;;;;;;5.37;2.60;;;14.40;99.90;;;;;;4990949;28;20250;-52
2022/07/05 00:49:05;;;;;;;5.60;3.10;;;14.40;99.90;;;;;;4990153;28;20541;-51
2022/07/05 00:51:34;;;;;;;5.10;3.23;;;14.40;99.90;;;;;;4990013;28;20459;-51
2022/07/05 00:54:00;;;;;;;6.53;2.80;;;14.30;99.90;;;;;;4990238;28;20491;-51
2022/07/05 00:56:26;;;;;;;6.40;3.17;;;14.30;99.90;;;;;;4990131;28;20549;-51
2022/07/05 00:58:52;;;;;;;3.37;2.67;;;14.30;99.90;;;;;;4990978;28;20407;-51
2022/07/05 01:01:19;;;;;;;4.83;3.00;;;14.30;99.90;;;;;;4987779;28;20803;-51
2022/07/05 01:03:45;;;;;;;3.20;2.90;;;14.20;99.90;;;;;;4989854;28;21010;-52
2022/07/05 01:06:12;;;;;;;7.60;3.33;;;14.20;99.90;;;;;;4989939;28;20508;-51
2022/07/05 01:08:40;;;;;;;4.63;2.93;;;14.20;99.90;;;;;;4989937;28;20538;-51
2022/07/05 01:11:06;;;;;;;7.80;2.83;;;14.20;99.90;;;;;;4989077;28;20447;-51
2022/07/05 01:13:33;;;;;;;5.90;2.80;;;14.20;99.90;;;;;;4988869;28;20442;-51
2022/07/05 01:15:59;;;;;;;6.73;3.90;;;14.20;99.90;;;;;;4989664;28;20435;-51
2022/07/05 01:18:25;;;;;;;6.27;2.87;;;14.20;99.90;;;;;;4990046;28;20451;-51
2022/07/05 01:20:51;;;;;;;6.40;3.60;;;14.10;99.90;;;;;;4984262;28;20443;-51
2022/07/05 01:23:18;;;;;;;11.70;3.80;;;14.10;99.90;;;;;;4991308;28;20462;-51
2022/07/05 01:25:45;;;;;;;5.00;3.10;;;14.10;99.90;;;;;;4989837;28;20207;-51
2022/07/05 01:28:11;;;;;;;4.70;2.90;;;14.00;99.90;;;;;;4990045;28;20450;-51
2022/07/05 01:30:39;;;;;;;6.17;2.97;;;14.00;99.90;;;;;;4992730;28;20439;-51
2022/07/05 01:33:06;;;;;;;8.77;3.77;;;14.00;99.90;;;;;;4992501;28;20636;-52
2022/07/05 01:35:32;;;;;;;5.50;3.30;;;13.90;99.90;;;;;;4994516;28;20404;-51
2022/07/05 01:37:58;;;;;;;6.10;3.33;;;13.90;99.90;;;;;;4993420;28;20443;-51
2022/07/05 01:40:23;;;;;;;6.10;3.57;;;13.80;99.90;;;;;;4992847;28;20199;-52
2022/07/05 01:42:49;;;;;;;3.73;3.40;;;13.80;99.90;;;;;;4993049;28;20295;-51
2022/07/05 01:45:38;;;;;;;4.50;3.33;;;13.80;99.90;;;;;;4987873;28;20211;-51
2022/07/05 01:48:02;;;;;;;7.63;3.30;;;13.80;99.90;;;;;;4994250;28;20661;-51
2022/07/05 01:50:31;;;;;;;5.60;3.53;;;13.80;99.90;;;;;;4992908;28;20446;-51
2022/07/05 01:52:58;;;;;;;3.60;2.87;;;13.80;99.90;;;;;;4993451;28;20447;-52
2022/07/05 01:55:24;;;;;;;3.57;3.10;;;13.90;99.90;;;;;;4990863;28;20463;-51
2022/07/05 01:57:50;;;;;;;5.67;3.90;;;13.90;99.90;;;;;;4992717;28;20774;-51
2022/07/05 02:00:16;;;;;;;3.53;3.23;;;13.90;99.90;;;;;;4992116;28;20680;-51
2022/07/05 02:02:42;;;;;;;4.50;3.50;;;13.90;99.90;;;;;;4991962;28;20514;-51
2022/07/05 02:05:08;;;;;;;5.17;3.10;;;13.90;99.90;;;;;;4976689;28;20272;-51
2022/07/05 02:07:33;;;;;;;7.33;3.90;;;13.80;99.90;;;;;;4993175;28;20598;-51
2022/07/05 02:09:59;;;;;;;4.50;3.60;;;13.70;99.90;;;;;;4991077;28;20328;-52
2022/07/05 02:12:24;;;;;;;4.10;3.70;;;13.70;99.90;;;;;;4990655;28;20200;-51
2022/07/05 02:14:50;;;;;;;8.87;3.80;;;13.70;99.90;;;;;;4992950;28;20196;-52
2022/07/05 02:17:16;;;;;;;4.93;3.57;;;13.80;99.90;;;;;;4992992;28;20192;-51
2022/07/05 02:19:41;;;;;;;5.40;3.37;;;13.70;99.90;;;;;;4993796;28;20188;-51
2022/07/05 02:22:07;;;;;;;8.20;4.10;;;13.70;99.90;;;;;;4990857;28;20227;-52
2022/07/05 02:24:33;;;;;;;9.20;4.03;;;13.70;99.90;;;;;;4990305;28;20269;-51
2022/07/05 02:26:59;;;;;;;7.50;3.67;;;13.60;99.90;;;;;;4993068;28;20981;-51
2022/07/05 02:29:25;;;;;;;7.57;4.00;;;13.60;99.90;;;;;;4992466;28;20201;-52
2022/07/05 02:31:50;;;;;;;6.93;3.93;;;13.60;99.90;;;;;;4992349;28;20952;-51
2022/07/05 02:34:16;;;;;;;10.73;4.63;;;13.60;99.90;;;;;;4991775;28;20203;-51
2022/07/05 02:36:42;;;;;;;8.27;4.20;;;13.50;99.90;;;;;;4993293;28;20220;-51
2022/07/05 02:39:07;;;;;;;6.20;4.40;;;13.50;99.90;;;;;;4991895;28;20239;-52
2022/07/05 02:41:33;;;;;;;8.73;4.60;;;13.50;99.90;;;;;;4991326;28;20216;-51
2022/07/05 02:43:59;;;;;;;6.37;4.03;;;13.30;99.90;;;;;;4991718;28;20273;-52
2022/07/05 02:46:24;;;;;;;5.30;4.23;;;13.40;99.90;;;;;;4992469;28;20231;-52
2022/07/05 02:48:52;;;;;;;7.00;5.03;;;13.30;1.00;;;;;;4981319;28;20193;-51
2022/07/05 02:51:18;;;;;;;6.40;4.17;;;13.40;1.00;;;;;;4992631;28;20607;-53
2022/07/05 02:53:43;;;;;;;6.70;4.93;;;13.30;99.90;;;;;;4992800;28;20483;-51
2022/07/05 02:56:09;;;;;;;5.60;4.73;;;13.30;1.00;;;;;;4991548;28;20276;-51
2022/07/05 02:58:36;;;;;;;8.03;4.70;;;13.20;1.00;;;;;;4991858;28;20203;-51
2022/07/05 03:01:02;;;;;;;7.70;4.87;;;13.20;1.00;;;;;;4991244;28;20195;-52
2022/07/05 03:03:27;;;;;;;9.00;5.37;;;13.20;1.00;;;;;;4991991;28;20780;-52
2022/07/05 03:05:53;;;;;;;6.50;5.17;;;13.20;1.00;;;;;;4990964;28;20196;-51
2022/07/05 03:08:19;;;;;;;9.27;5.00;;;13.30;1.00;;;;;;4991370;28;20921;-51
2022/07/05 03:10:45;;;;;;;10.80;5.77;;;13.20;1.00;;;;;;4991755;28;20658;-51
2022/07/05 03:13:10;;;;;;;16.80;5.33;;;13.20;1.00;;;;;;4990978;28;20188;-51
2022/07/05 03:15:36;;;;;;;6.90;5.60;;;13.10;1.00;;;;;;4992233;28;20210;-51
2022/07/05 03:18:02;;;;;;;7.87;5.70;;;13.10;1.00;;;;;;4989052;28;20200;-51
2022/07/05 03:20:27;;;;;;;11.93;5.70;;;13.10;1.00;;;;;;4988307;28;20518;-51
2022/07/05 03:22:53;;;;;;;6.00;5.07;;;13.00;1.00;;;;;;4990947;28;20219;-51
2022/07/05 03:25:19;;;;;;;7.10;5.27;;;13.00;1.00;;;;;;4991330;28;20192;-51
2022/07/05 03:27:45;;;;;;;9.80;5.83;;;13.00;1.00;;;;;;4992198;28;20176;-51
2022/07/05 03:30:11;;;;;;;11.07;5.53;;;12.90;1.00;;;;;;4986757;28;20197;-51
2022/07/05 03:32:37;;;;;;;8.33;5.40;;;13.00;1.00;;;;;;4991452;28;20439;-51
2022/07/05 03:35:02;;;;;;;6.70;5.93;;;12.90;1.00;;;;;;4991723;28;20780;-51
2022/07/05 03:37:28;;;;;;;6.97;5.50;;;13.00;1.00;;;;;;4992412;28;20264;-51
2022/07/05 03:39:54;;;;;;;8.70;5.40;;;13.00;1.00;;;;;;4990543;28;20524;-52
2022/07/05 03:42:19;;;;;;;6.80;6.10;;;13.00;1.00;;;;;;4990741;28;20662;-51
2022/07/05 03:44:45;;;;;;;8.07;5.73;;;13.00;1.00;;;;;;4989891;28;20215;-51
2022/07/05 03:47:10;;;;;;;10.73;5.97;;;13.00;1.00;;;;;;4991863;28;20186;-51
2022/07/05 03:49:36;;;;;;;6.80;5.57;;;13.10;1.00;;;;;;4990608;28;20216;-51
2022/07/05 03:52:02;;;;;;;9.43;5.90;;;13.10;1.00;;;;;;4990953;28;20192;-52
2022/07/05 03:54:27;;;;;;;6.20;5.60;;;13.10;1.00;;;;;;4990579;28;20236;-51
2022/07/05 03:56:53;;;;;;;8.20;5.90;;;13.20;1.00;;;;;;4989920;28;20243;-51
2022/07/05 03:59:18;;;;;;;9.50;5.90;;;13.10;1.00;;;;;;4990169;28;20242;-51
2022/07/05 04:01:44;;;;;;;6.90;5.53;;;13.10;1.00;;;;;;4991852;28;20201;-51
2022/07/05 04:04:10;;;;;;;6.83;6.13;;;13.20;1.00;;;;;;4990260;28;20165;-51
2022/07/05 04:06:35;;;;;;;12.20;6.00;;;13.20;1.00;;;;;;4973394;28;20219;-51
2022/07/05 04:09:01;;;;;;;9.43;6.00;;;13.30;1.00;;;;;;4991342;28;20259;-51
2022/07/05 04:11:26;;;;;;;14.10;6.50;;;13.20;1.00;;;;;;4990424;28;20199;-51
2022/07/05 04:13:52;;;;;;;7.30;5.53;;;13.30;1.00;;;;;;4988992;28;20219;-51
2022/07/05 04:16:18;;;;;;;6.60;5.37;;;13.30;1.00;;;;;;4989990;28;20191;-52
2022/07/05 04:18:43;;;;;;;8.13;5.80;;;13.40;1.00;;;;;;4991105;28;20179;-51
2022/07/05 04:21:09;;;;;;;8.07;6.00;;;13.30;1.00;;;;;;4984102;28;20192;-51
2022/07/05 04:23:34;;;;;;;9.00;5.80;;;13.30;1.00;;;;;;4991198;28;20590;-51
2022/07/05 04:26:01;;;;;;;6.13;5.37;;;13.40;1.00;;;;;;4990984;28;20202;-51
2022/07/05 04:28:29;;;;;;;10.63;6.27;;;13.40;1.00;;;;;;4991232;28;20235;-52
2022/07/05 04:30:56;;;;;;;11.17;5.60;;;13.50;99.90;;;;;;4989928;28;20446;-52
2022/07/05 04:33:21;;;;;;;11.93;5.47;;;13.60;99.90;;;;;;4990510;28;20443;-51
2022/07/05 04:35:47;;;;;;;9.80;5.90;;;13.60;99.90;;;;;;4988510;28;20877;-56
2022/07/05 04:38:13;;;;;;;9.80;5.20;;;13.60;99.90;;;;;;4990525;28;20207;-59
2022/07/05 04:40:40;;;;;;;14.63;5.67;;;13.70;99.90;;;;;;4984235;28;21210;-56
2022/07/05 04:43:06;;;;;;;7.40;5.20;;;13.80;99.90;;;;;;4990249;28;20196;-54
2022/07/05 04:45:32;;;;;;;10.00;5.30;;;13.90;99.90;;;;;;4989962;28;20450;-56
2022/07/05 04:47:58;;;;;;;7.57;5.30;;;14.10;99.90;;;;;;4989794;28;20439;-56
2022/07/05 04:50:23;;;;;;;6.13;5.13;;;14.20;99.90;;;;;;4990750;28;20185;-56
2022/07/05 04:52:49;;;;;;;7.27;4.80;;;14.40;99.90;;;;;;4988589;28;20185;-55
2022/07/05 04:55:14;;;;;;;5.97;4.30;;;14.50;99.90;;;;;;4989123;28;20259;-54
2022/07/05 04:57:41;;;;;;;8.50;4.33;;;14.70;99.90;;;;;;4990072;28;20200;-56
2022/07/05 05:00:09;;;;;;;8.97;4.27;;;14.80;99.90;;;;;;4990556;28;20685;-53
2022/07/05 05:02:34;;;;;;;7.77;4.10;;;14.90;99.90;;;;;;4990302;28;20477;-55
2022/07/05 05:05:00;;;;;;;8.43;4.60;;;15.00;99.90;;;;;;4979305;28;20446;-56
2022/07/05 05:07:25;;;;;;;4.60;3.93;;;15.10;99.90;;;;;;4996469;28;20195;-57
2022/07/05 05:09:52;;;;;;;5.70;3.83;;;15.20;99.90;;;;;;4995905;28;20188;-56
2022/07/05 05:12:18;;;;;;;5.53;3.60;;;15.30;99.90;;;;;;4994440;28;20187;-56
2022/07/05 05:14:43;;;;;;;11.20;3.83;;;15.50;99.90;;;;;;4996530;28;20445;-56
2022/07/05 05:17:09;;;;;;;7.00;3.77;;;15.70;99.90;;;;;;4996393;28;20254;-55
2022/07/05 05:19:34;;;;;;;4.63;3.77;;;15.90;99.90;;;;;;4995976;28;20199;-57
2022/07/05 05:22:00;;;;;;;3.90;3.50;;;15.90;99.90;;;;;;4993035;28;20230;-56
2022/07/05 05:24:26;;;;;;;9.33;3.63;;;15.80;99.90;;;;;;4997299;28;20169;-55
2022/07/05 05:26:51;;;;;;;8.53;3.70;;;15.60;99.90;;;;;;4995807;28;20227;-56
2022/07/05 05:29:18;;;;;;;7.87;3.77;;;15.40;99.90;;;;;;4996719;28;20188;-56
2022/07/05 05:31:44;;;;;;;6.90;3.70;;;15.60;99.90;;;;;;4993457;28;20242;-55
2022/07/05 05:34:10;;;;;;;5.20;3.80;;;15.90;99.90;;;;;;4994035;28;20451;-55
2022/07/05 05:36:36;;;;;;;8.73;3.40;;;16.10;99.90;;;;;;4978398;28;20721;-56
2022/07/05 05:39:02;;;;;;;8.43;3.40;;;16.30;99.90;;;;;;4997386;28;20232;-55
2022/07/05 05:41:28;;;;;;;5.80;3.40;;;16.50;99.90;;;;;;4996362;28;20470;-56
2022/07/05 05:43:53;;;;;;;5.17;2.87;;;16.60;99.90;;;;;;4997481;28;20870;-57
2022/07/05 05:46:19;;;;;;;7.63;2.80;;;16.70;99.90;;;;;;4995887;28;20276;-56
2022/07/05 05:48:44;;;;;;;3.30;2.77;;;16.80;99.90;;;;;;4996342;28;20160;-55
2022/07/05 05:51:10;;;;;;;3.77;3.23;;;17.10;99.90;;;;;;4997101;28;20254;-56
2022/07/05 05:53:36;;;;;;;5.17;2.67;;;17.20;99.90;;;;;;4983087;28;20383;-54
2022/07/05 05:56:01;;;;;;;7.20;3.03;;;17.50;99.90;;;;;;4977519;28;20179;-54
2022/07/05 05:58:27;;;;;;;6.03;2.80;;;17.60;99.90;;;;;;4977464;28;20188;-56
2022/07/05 06:00:53;;;;;;;3.60;2.47;;;17.50;99.90;;;;;;4985439;28;20188;-56
2022/07/05 06:03:20;;;;;;;7.17;3.27;;;17.50;99.90;;;;;;4996713;28;20560;-56
2022/07/05 06:05:46;;;;;;;5.20;2.80;;;17.70;99.90;;;;;;4996619;28;20404;-57
2022/07/05 06:08:12;;;;;;;2.83;2.57;;;17.80;99.90;;;;;;4996917;28;20419;-56
2022/07/05 06:10:38;;;;;;;3.80;2.40;;;17.70;99.90;;;;;;4995413;28;20230;-56
2022/07/05 06:13:07;;;;;;;4.13;2.33;;;17.70;99.90;;;;;;4996667;28;20470;-56
2022/07/05 06:15:33;;;;;;;5.00;2.10;;;18.00;99.90;;;;;;4994362;28;20185;-56
2022/07/05 06:17:59;;;;;;;3.60;2.10;;;18.10;99.90;;;;;;4993809;28;20499;-57
2022/07/05 06:20:29;;;;;;;3.40;2.50;;;18.40;99.90;;;;;;4992969;28;20862;-57
2022/07/05 06:22:55;;;;;;;8.37;2.50;;;18.70;99.90;;;;;;4993656;28;20638;-57
2022/07/05 06:25:21;;;;;;;7.43;2.63;;;18.80;99.90;;;;;;4992549;28;20451;-56
2022/07/05 06:27:55;;;;;;;4.73;2.07;;;19.00;99.90;;;;;;4993737;28;20411;-56
2022/07/05 06:30:24;;;;;;;4.63;2.73;;;19.20;99.90;;;;;;4992867;28;21010;-56
2022/07/05 06:32:50;;;;;;;3.43;2.37;;;19.30;99.90;;;;;;4993815;28;20878;-56
2022/07/05 06:35:16;;;;;;;6.13;2.50;;;19.20;99.90;;;;;;4993686;28;20412;-55
2022/07/05 06:37:46;;;;;;;5.80;2.50;;;19.20;99.90;;;;;;4993793;28;21177;-57
2022/07/05 06:40:13;;;;;;;3.67;2.07;;;19.10;99.90;;;;;;4992295;28;20830;-55
2022/07/05 06:42:40;;;;;;;5.17;2.20;;;19.30;99.90;;;;;;4974483;28;20465;-56
2022/07/05 06:45:06;;;;;;;3.33;2.30;;;19.60;99.90;;;;;;4991922;28;20482;-57
2022/07/05 06:47:33;;;;;;;6.37;2.20;;;19.80;99.90;;;;;;4993677;28;20414;-56
2022/07/05 06:49:59;;;;;;;5.63;2.40;;;20.20;99.90;;;;;;4991134;28;20527;-57
2022/07/05 06:52:24;;;;;;;6.03;2.43;;;20.50;99.90;;;;;;4993140;28;20595;-56
2022/07/05 06:54:50;;;;;;;3.97;2.57;;;20.40;99.90;;;;;;4972305;28;20271;-56
2022/07/05 06:57:22;;;;;;;5.50;1.93;;;20.70;99.90;;;;;;4992451;28;20204;-54
2022/07/05 06:59:48;;;;;;;5.03;1.83;;;21.20;99.90;;;;;;4991331;28;20223;-55
2022/07/05 07:02:14;;;;;;;3.13;1.40;;;21.50;99.90;;;;;;4993048;28;20499;-57
2022/07/05 07:04:40;;;;;;;2.47;1.43;;;21.40;99.90;;;;;;4993235;28;20165;-57
2022/07/05 07:09:17;;;;;;;3.47;1.67;;;20.80;99.90;;;;;;4993184;28;20173;-54
2022/07/05 07:10:00;;;;;;;9.00;2.07;;;20.80;99.90;;;;;;4981538;28;20220;-56
2022/07/05 07:12:26;;;;;;;1.83;1.47;;;20.60;99.90;;;;;;4993067;28;20896;-56
2022/07/05 07:14:52;;;;;;;3.20;1.37;;;20.40;99.90;;;;;;4992184;28;20469;-56
2022/07/05 07:17:18;;;;;;;2.87;1.57;;;20.20;99.90;;;;;;4992928;28;20427;-57
2022/07/05 07:19:43;;;;;;;3.67;1.57;;;19.70;99.90;;;;;;4992832;28;20630;-56
2022/07/05 07:22:09;;;;;;;2.80;1.57;;;19.50;99.90;;;;;;4992735;28;20315;-57
2022/07/05 07:24:35;;;;;;;2.13;1.80;;;19.40;99.90;;;;;;4990845;28;20184;-56
2022/07/05 07:27:03;;;;;;;4.40;1.67;;;19.30;99.90;;;;;;4968654;28;20261;-56
2022/07/05 07:29:34;;;;;;;2.23;1.60;;;19.40;99.90;;;;;;4991661;28;20530;-55
2022/07/05 07:32:00;;;;;;;9.67;2.47;;;19.50;99.90;;;;;;4991236;28;20913;-56
2022/07/05 07:34:28;;;;;;;7.50;1.87;;;19.60;99.90;;;;;;4986501;28;20938;-55
2022/07/05 07:36:54;;;;;;;5.73;2.13;;;19.60;99.90;;;;;;4987711;28;20514;-56
2022/07/05 07:39:20;;;;;;;7.07;2.33;;;19.40;99.90;;;;;;4989203;28;20936;-56
2022/07/05 07:41:46;;;;;;;7.80;2.40;;;19.30;99.90;;;;;;4996442;28;20554;-56
2022/07/05 07:44:12;;;;;;;5.10;2.00;;;19.30;99.90;;;;;;4992163;28;20180;-54
2022/07/05 07:46:40;;;;;;;6.57;1.97;;;19.30;99.90;;;;;;4991572;28;20972;-56
2022/07/05 07:49:06;;;;;;;4.93;1.70;;;19.40;99.90;;;;;;4974540;28;20196;-56
2022/07/05 07:51:33;;;;;;;2.90;1.50;;;19.60;99.90;;;;;;4992082;28;20424;-56
2022/07/05 07:53:59;;;;;;;4.90;1.83;;;19.90;99.90;;;;;;4991621;28;20477;-56
2022/07/05 07:56:25;;;;;;;4.63;1.80;;;20.30;99.90;;;;;;4991733;28;20432;-55
2022/07/05 07:58:50;;;;;;;3.70;1.63;;;20.70;99.90;;;;;;4991162;28;20920;-57
2022/07/05 08:01:16;;;;;;;4.73;1.40;;;21.20;99.90;;;;;;4992677;28;20192;-56
2022/07/05 08:03:42;;;;;;;7.07;1.47;;;21.70;99.90;;;;;;4988698;28;20223;-57
2022/07/05 08:06:08;;;;;;;1.93;1.30;;;21.80;99.90;;;;;;4990839;28;20220;-56
2022/07/05 08:08:41;;;;;;;3.27;1.43;;;21.90;99.90;;;;;;4992239;28;20768;-57
2022/07/05 08:11:09;;;;;;;3.30;1.23;;;22.30;99.90;;;;;;4988202;28;20534;-57
2022/07/05 08:13:35;;;;;;;2.53;1.30;;;22.50;99.90;;;;;;4991032;28;20928;-56
2022/07/05 08:16:01;;;;;;;2.00;1.23;;;22.80;99.90;;;;;;4991822;28;20495;-58
2022/07/05 08:21:30;;;;;;;3.37;1.27;;;22.50;99.90;;;;;;4990877;28;20533;-57
2022/07/05 08:24:00;;;;;;;2.40;1.40;;;23.00;99.90;;;;;;4987815;28;20817;-57
2022/07/05 08:26:26;;;;;;;5.43;1.20;;;23.40;99.90;;;;;;4991138;28;20435;-57
2022/07/05 08:28:52;;;;;;;2.30;1.23;;;23.30;99.90;;;;;;4972334;28;20435;-56
2022/07/05 08:31:19;;;;;;;3.37;1.47;;;23.10;99.90;;;;;;4991036;28;20443;-56
2022/07/05 08:33:44;;;;;;;1.00;0.90;;;23.20;99.90;;;;;;4987034;28;20447;-56
2022/07/05 08:36:10;;;;;;;2.03;0.70;;;23.70;99.90;;;;;;5003072;28;20482;-58
2022/07/05 08:38:36;;;;;;;4.03;0.87;;;23.80;99.90;;;;;;5011096;28;20571;-57
2022/07/05 08:41:02;;;;;;;2.50;1.00;;;24.00;99.90;;;;;;4973900;28;20196;-58
2022/07/05 08:43:29;;;;;;;1.70;1.07;;;23.90;99.90;;;;;;4991281;28;20210;-57
2022/07/05 08:45:56;;;;;;;0.80;0.80;;;24.40;99.90;;;;;;4991638;28;20484;-57
2022/07/05 08:48:26;;;;;;;4.40;0.90;;;24.50;99.90;;;;;;4991711;28;20885;-57
2022/07/05 08:50:54;;;;;;;2.60;0.87;;;23.80;99.90;;;;;;4991830;28;20925;-57
2022/07/05 08:53:21;;;;;;;1.77;1.00;;;23.00;99.90;;;;;;4990726;28;20491;-56
2022/07/05 08:55:47;;;;;;;3.10;1.03;;;22.50;99.90;;;;;;4992743;28;20994;-56
2022/07/05 08:58:13;;;;;;;1.57;1.00;;;22.00;99.90;;;;;;4993113;28;20427;-57
2022/07/05 09:00:43;;;;;;;6.43;1.23;;;21.60;99.90;;;;;;4993586;28;20361;-55
2022/07/05 09:03:09;;;;;;;2.80;1.00;;;21.20;99.90;;;;;;4994391;28;21015;-57
2022/07/05 09:05:42;;;;;;;2.63;1.20;;;21.10;99.90;;;;;;4993874;28;20411;-58
2022/07/05 09:08:09;;;;;;;3.17;0.90;;;21.00;99.90;;;;;;4993503;28;20388;-58
2022/07/05 09:10:37;;;;;;;1.73;1.00;;;21.20;99.90;;;;;;4992903;28;20431;-57
2022/07/05 09:13:03;;;;;;;1.93;1.27;;;21.40;99.90;;;;;;4992262;28;20478;-56
2022/07/05 09:15:29;;;;;;;1.43;1.00;;;21.40;99.90;;;;;;4990201;28;20555;-56
2022/07/05 09:17:55;;;;;;;1.30;0.90;;;21.10;99.90;;;;;;4993399;28;20950;-57
2022/07/05 09:20:21;;;;;;;1.80;0.90;;;20.90;99.90;;;;;;4994701;28;20506;-57
2022/07/05 09:22:52;;;;;;;2.27;1.03;;;20.50;99.90;;;;;;4994463;28;20215;-56
2022/07/05 09:25:31;;;;;;;1.47;1.10;;;20.30;99.90;;;;;;4993845;28;20169;-56
2022/07/05 09:28:02;;;;;;;3.43;1.17;;;20.10;99.90;;;;;;4991270;28;20839;-56
2022/07/05 09:30:41;;;;;;;2.00;0.90;;;20.20;99.90;;;;;;4991971;28;20435;-57
2022/07/05 09:33:14;;;;;;;4.20;1.10;;;20.50;99.90;;;;;;4991930;28;20443;-57
2022/07/05 09:35:42;;;;;;;2.60;1.10;;;20.60;99.90;;;;;;4991731;28;20478;-57
2022/07/05 09:38:22;;;;;;;4.50;1.10;;;20.70;99.90;;;;;;4980499;28;20603;-57
2022/07/05 09:40:58;;;;;;;2.40;1.00;;;20.80;99.90;;;;;;4991254;28;20904;-58
2022/07/05 09:43:27;;;;;;;4.40;1.00;;;21.50;99.90;;;;;;4992005;28;20479;-55
2022/07/05 09:45:57;;;;;;;3.13;0.90;;;22.10;99.90;;;;;;4993396;28;20399;-57
2022/07/05 09:48:23;;;;;;;3.03;0.97;;;22.70;99.90;;;;;;4991973;28;20466;-56
2022/07/05 09:50:51;;;;;;;1.70;0.90;;;23.40;99.90;;;;;;4990667;28;20434;-56
2022/07/05 09:53:17;;;;;;;0.87;0.80;;;24.20;99.90;;;;;;4996651;28;20830;-57
2022/07/05 09:56:09;;;;;;;2.77;0.80;;;24.90;99.90;;;;;;4977899;28;20490;-52
2022/07/05 09:58:35;;;;;;;2.20;1.10;;;25.60;99.90;;;;;;4994848;28;20807;-52
2022/07/05 10:01:00;;;;;;;2.30;1.13;;;26.20;99.90;;;;;;4994697;28;20415;-51
2022/07/05 10:03:26;;;;;;;2.30;1.20;;;26.50;99.90;;;;;;4994971;28;20212;-53
2022/07/05 10:05:51;;;;;;;1.63;0.83;;;26.70;99.90;;;;;;4993445;28;20778;-52
2022/07/05 10:08:20;;;;;;;1.23;0.90;;;26.30;99.90;;;;;;4994099;28;20160;-52
2022/07/05 10:10:47;;;;;;;2.13;0.97;;;26.40;99.90;;;;;;4994102;28;20874;-52
2022/07/05 10:13:14;;;;;;;2.60;1.20;;;26.60;99.90;;;;;;4993875;28;20481;-52
2022/07/05 10:15:42;;;;;;;2.40;1.10;;;26.20;99.90;;;;;;4976477;28;20446;-52
2022/07/05 10:18:11;;;;;;;3.53;0.90;;;25.40;99.90;;;;;;4994005;28;20820;-52
2022/07/05 10:20:37;;;;;;;2.40;0.80;;;25.70;99.90;;;;;;4994156;28;20494;-53
2022/07/05 10:23:08;;;;;;;5.13;0.80;;;26.00;99.90;;;;;;4993304;28;20561;-52
2022/07/05 10:25:38;;;;;;;1.57;0.80;;;26.20;99.90;;;;;;4993720;28;20252;-58
2022/07/05 10:28:05;;;;;;;2.30;0.90;;;26.50;99.90;;;;;;4993655;28;20399;-58
2022/07/05 10:30:31;;;;;;;2.57;1.70;;;26.10;99.90;;;;;;4993858;28;20915;-58
2022/07/05 10:32:57;;;;;;;1.87;0.93;;;25.70;99.90;;;;;;4976282;28;20443;-58
2022/07/05 10:35:23;;;;;;;1.50;0.90;;;25.20;99.90;;;;;;4993624;28;20412;-57
2022/07/05 10:37:49;;;;;;;2.33;0.90;;;25.40;99.90;;;;;;4993557;28;20173;-57
2022/07/05 10:40:16;;;;;;;1.33;0.80;;;25.80;99.90;;;;;;4993628;28;20230;-58
2022/07/05 10:42:52;;;;;;;3.10;1.23;;;25.80;99.90;;;;;;4993316;28;20561;-57
2022/07/05 10:45:39;;;;;;;1.10;0.90;;;26.00;99.90;;;;;;4993483;28;20434;-57
2022/07/05 10:48:24;;;;;;;4.50;1.00;;;26.80;99.90;;;;;;4993389;28;20400;-58
2022/07/05 10:50:54;;;;;;;0.90;0.80;;;27.60;99.90;;;;;;4989271;28;21014;-58
2022/07/05 10:53:22;;;;;;;1.13;0.90;;;26.90;99.90;;;;;;4975335;28;20479;-58
2022/07/05 10:56:11;;;;;;;4.57;0.97;;;25.30;99.90;;;;;;4974097;28;20530;-58
2022/07/05 10:58:38;;;;;;;1.87;0.70;;;24.90;99.90;;;;;;4974644;28;20415;-58
2022/07/05 11:01:19;;;;;;;2.70;0.80;;;24.10;99.90;;;;;;4974076;28;20413;-58
2022/07/05 11:03:49;;;;;;;2.50;0.80;;;23.60;99.90;;;;;;4981229;28;20448;-58
2022/07/05 11:06:39;;;;;;;2.43;1.00;;;23.20;99.90;;;;;;4990830;28;20727;-57
2022/07/05 11:09:11;;;;;;;4.00;0.80;;;22.90;99.90;;;;;;4986590;28;20778;-57
2022/07/05 11:12:00;;;;;;;1.67;1.10;;;23.20;99.90;;;;;;4992965;28;20408;-55
2022/07/05 11:14:26;;;;;;;3.00;0.80;;;23.50;99.90;;;;;;4987530;28;21003;-57
2022/07/05 11:17:11;;;;;;;0.90;0.70;;;23.80;99.90;;;;;;4992859;28;20519;-57
2022/07/05 11:20:08;;;;;;;6.10;1.00;;;24.70;99.90;;;;;;4996178;28;20967;-58
2022/07/05 11:22:35;;;;;;;1.07;0.83;;;24.60;99.90;;;;;;4992660;28;20550;-57
2022/07/05 11:25:03;;;;;;;3.53;0.80;;;23.90;99.90;;;;;;5000777;28;20415;-57
2022/07/05 11:27:29;;;;;;;2.10;0.80;;;23.50;99.90;;;;;;5002717;28;20423;-52
2022/07/05 11:29:56;;;;;;;2.40;0.80;;;24.00;99.90;;;;;;4992622;28;20434;-53
2022/07/05 11:32:22;;;;;;;4.30;0.80;;;24.70;99.90;;;;;;4980331;28;20180;-52
2022/07/05 11:34:53;;;;;;;3.43;0.90;;;25.20;99.90;;;;;;4992596;28;20427;-52
2022/07/05 11:37:24;;;;;;;1.87;0.80;;;25.60;99.90;;;;;;4989492;28;20447;-53
2022/07/05 11:40:10;;;;;;;2.00;0.80;;;26.40;99.90;;;;;;4982000;28;20419;-52
2022/07/05 11:42:39;;;;;;;2.03;0.80;;;27.20;99.90;;;;;;4992660;28;20462;-52
2022/07/05 11:45:09;;;;;;;3.13;1.10;;;27.70;99.90;;;;;;4992165;28;21225;-52
2022/07/05 11:47:35;;;;;;;3.33;0.90;;;27.70;99.90;;;;;;4992257;28;20755;-52
2022/07/05 11:50:01;;;;;;;3.67;1.27;;;28.10;99.90;;;;;;4996478;28;20439;-52
2022/07/05 11:52:35;;;;;;;1.93;0.90;;;28.20;99.90;;;;;;5011596;28;20501;-52
2022/07/05 11:55:04;;;;;;;4.40;0.93;;;28.00;99.90;;;;;;5000477;28;20470;-53
2022/07/05 11:57:30;;;;;;;5.73;1.00;;;27.80;99.90;;;;;;4972376;28;20512;-52
2022/07/05 11:59:55;;;;;;;4.77;1.23;;;28.00;99.90;;;;;;4986081;28;20542;-52
2022/07/05 12:02:21;;;;;;;3.33;1.27;;;27.70;99.90;;;;;;4975893;28;20215;-52
2022/07/05 12:04:49;;;;;;;0.97;0.80;;;27.20;99.90;;;;;;4990940;28;20718;-52
2022/07/05 12:07:31;;;;;;;8.23;0.87;;;27.20;99.90;;;;;;4990918;28;20188;-52
2022/07/05 12:12:42;;;;;;;3.30;1.10;;;27.80;99.90;;;;;;4988327;28;20418;-53
2022/07/05 12:15:13;;;;;;;2.33;0.93;;;27.70;99.90;;;;;;4974521;28;20535;-52
2022/07/05 12:17:42;;;;;;;2.17;1.00;;;27.90;99.90;;;;;;4974994;28;20435;-52
2022/07/05 12:20:11;;;;;;;1.77;1.03;;;27.60;99.90;;;;;;4991383;28;20435;-52
2022/07/05 12:22:42;;;;;;;1.40;0.80;;;27.20;99.90;;;;;;4985463;28;20693;-52
2022/07/05 12:25:14;;;;;;;1.17;1.00;;;26.50;99.90;;;;;;4988736;28;20447;-52
2022/07/05 12:27:42;;;;;;;1.30;0.87;;;26.00;99.90;;;;;;4990166;28;20447;-52
2022/07/05 12:30:09;;;;;;;1.17;0.90;;;25.60;99.90;;;;;;4991498;28;20820;-52
2022/07/05 12:32:56;;;;;;;1.40;0.90;;;26.30;99.90;;;;;;4989710;28;20528;-52
2022/07/05 12:35:34;;;;;;;3.30;0.90;;;27.10;99.90;;;;;;4991176;28;20414;-52
2022/07/05 12:38:08;;;;;;;3.37;0.90;;;27.10;99.90;;;;;;4972258;28;21230;-52
2022/07/05 12:40:38;;;;;;;2.03;0.97;;;26.00;99.90;;;;;;4988080;28;20465;-52
2022/07/05 12:43:12;;;;;;;5.10;0.97;;;25.70;99.90;;;;;;4990204;28;20509;-52
2022/07/05 12:45:40;;;;;;;2.80;1.10;;;25.40;99.90;;;;;;4990003;28;21235;-52
2022/07/05 12:48:08;;;;;;;2.50;1.30;;;25.00;99.90;;;;;;4989455;28;20486;-53
2022/07/05 12:50:52;;;;;;;1.80;1.30;;;25.00;99.90;;;;;;4989240;28;20854;-52
2022/07/05 12:58:53;;;;;;;2.97;1.80;;;25.90;99.90;;;;;;4982411;28;20500;-52
2022/07/05 13:01:40;;;;;;;2.03;1.10;;;25.40;99.90;;;;;;4988682;28;20439;-58